sensor_id;sensor_type;location;lat;lon;timestamp;temperature;humidity
37380;DHT22;23252;-33.992;18.480;2023-01-28T00:18:27;21.20;99.90
37380;DHT22;23252;-33.992;18.480;2023-01-28T00:21:13;21.20;99.90
37380;DHT22;23252;-33.992;18.480;2023-01-28T00:26:38;21.10;99.90
37380;DHT22;23252;-33.992;18.480;2023-01-28T00:29:18;21.10;99.90
37380;DHT22;23252;-33.992;18.480;2023-01-28T00:31:51;21.20;99.90
37380;DHT22;23252;-33.992;18.480;2023-01-28T00:34:39;21.30;99.90
37380;DHT22;23252;-33.992;18.480;2023-01-28T00:37:08;21.30;99.90
37380;DHT22;23252;-33.992;18.480;2023-01-28T00:39:40;21.40;99.90
37380;DHT22;23252;-33.992;18.480;2023-01-28T00:42:10;21.40;99.90
37380;DHT22;23252;-33.992;18.480;2023-01-28T00:44:54;21.40;99.90
37380;DHT22;23252;-33.992;18.480;2023-01-28T00:47:49;21.50;99.90
37380;DHT22;23252;-33.992;18.480;2023-01-28T00:53:43;21.50;99.90
37380;DHT22;23252;-33.992;18.480;2023-01-28T00:56:19;21.50;99.90
37380;DHT22;23252;-33.992;18.480;2023-01-28T00:58:51;21.50;99.90
37380;DHT22;23252;-33.992;18.480;2023-01-28T01:01:41;21.40;99.90
37380;DHT22;23252;-33.992;18.480;2023-01-28T01:04:45;21.40;99.90
37380;DHT22;23252;-33.992;18.480;2023-01-28T01:07:24;21.30;99.90
37380;DHT22;23252;-33.992;18.480;2023-01-28T01:10:01;21.20;99.90
37380;DHT22;23252;-33.992;18.480;2023-01-28T01:12:30;21.20;99.90
37380;DHT22;23252;-33.992;18.480;2023-01-28T01:15:03;21.20;99.90
37380;DHT22;23252;-33.992;18.480;2023-01-28T01:17:44;21.20;99.90
37380;DHT22;23252;-33.992;18.480;2023-01-28T01:20:17;21.20;99.90
37380;DHT22;23252;-33.992;18.480;2023-01-28T01:23:09;21.30;99.90
37380;DHT22;23252;-33.992;18.480;2023-01-28T01:25:47;21.30;99.90
37380;DHT22;23252;-33.992;18.480;2023-01-28T01:28:52;21.30;99.90
37380;DHT22;23252;-33.992;18.480;2023-01-28T01:31:40;21.30;99.90
37380;DHT22;23252;-33.992;18.480;2023-01-28T01:37:38;21.30;99.90
37380;DHT22;23252;-33.992;18.480;2023-01-28T01:40:38;21.30;99.90
37380;DHT22;23252;-33.992;18.480;2023-01-28T01:43:45;21.40;99.90
37380;DHT22;23252;-33.992;18.480;2023-01-28T01:46:42;21.40;99.90
37380;DHT22;23252;-33.992;18.480;2023-01-28T01:51:50;21.40;99.90
37380;DHT22;23252;-33.992;18.480;2023-01-28T01:54:21;21.30;99.90
37380;DHT22;23252;-33.992;18.480;2023-01-28T01:56:52;21.30;99.90
37380;DHT22;23252;-33.992;18.480;2023-01-28T01:59:26;21.30;99.90
37380;DHT22;23252;-33.992;18.480;2023-01-28T02:05:08;21.20;99.90
37380;DHT22;23252;-33.992;18.480;2023-01-28T02:07:57;21.20;99.90
37380;DHT22;23252;-33.992;18.480;2023-01-28T02:10:44;21.20;99.90
37380;DHT22;23252;-33.992;18.480;2023-01-28T02:16:49;21.20;99.90
37380;DHT22;23252;-33.992;18.480;2023-01-28T02:19:55;21.20;99.90
37380;DHT22;23252;-33.992;18.480;2023-01-28T02:34:44;21.40;99.90
37380;DHT22;23252;-33.992;18.480;2023-01-28T02:37:36;21.30;99.90
37380;DHT22;23252;-33.992;18.480;2023-01-28T02:40:21;21.20;99.90
37380;DHT22;23252;-33.992;18.480;2023-01-28T02:42:49;21.10;99.90
37380;DHT22;23252;-33.992;18.480;2023-01-28T02:45:30;20.90;99.90
37380;DHT22;23252;-33.992;18.480;2023-01-28T02:48:24;20.80;99.90
37380;DHT22;23252;-33.992;18.480;2023-01-28T02:51:04;20.60;99.90
37380;DHT22;23252;-33.992;18.480;2023-01-28T02:53:56;20.60;99.90
37380;DHT22;23252;-33.992;18.480;2023-01-28T02:56:47;20.50;99.90
37380;DHT22;23252;-33.992;18.480;2023-01-28T03:05:22;20.40;99.90
37380;DHT22;23252;-33.992;18.480;2023-01-28T03:07:52;20.30;99.90
37380;DHT22;23252;-33.992;18.480;2023-01-28T03:10:24;20.30;99.90
37380;DHT22;23252;-33.992;18.480;2023-01-28T03:12:54;20.30;99.90
37380;DHT22;23252;-33.992;18.480;2023-01-28T03:15:48;20.20;99.90
37380;DHT22;23252;-33.992;18.480;2023-01-28T03:18:42;20.20;99.90
37380;DHT22;23252;-33.992;18.480;2023-01-28T03:21:41;20.20;99.90
37380;DHT22;23252;-33.992;18.480;2023-01-28T03:24:42;20.20;99.90
37380;DHT22;23252;-33.992;18.480;2023-01-28T03:31:00;20.00;99.90
37380;DHT22;23252;-33.992;18.480;2023-01-28T03:33:47;19.90;99.90
37380;DHT22;23252;-33.992;18.480;2023-01-28T03:36:33;19.90;99.90
37380;DHT22;23252;-33.992;18.480;2023-01-28T03:39:17;19.90;99.90
37380;DHT22;23252;-33.992;18.480;2023-01-28T03:44:27;20.00;99.90
37380;DHT22;23252;-33.992;18.480;2023-01-28T03:47:19;20.00;99.90
37380;DHT22;23252;-33.992;18.480;2023-01-28T03:49:48;20.00;99.90
37380;DHT22;23252;-33.992;18.480;2023-01-28T03:52:20;20.00;99.90
37380;DHT22;23252;-33.992;18.480;2023-01-28T03:54:47;20.00;99.90
37380;DHT22;23252;-33.992;18.480;2023-01-28T03:57:17;20.00;99.90
37380;DHT22;23252;-33.992;18.480;2023-01-28T03:59:44;20.00;99.90
37380;DHT22;23252;-33.992;18.480;2023-01-28T04:02:18;20.00;99.90
37380;DHT22;23252;-33.992;18.480;2023-01-28T04:04:45;20.00;99.90
37380;DHT22;23252;-33.992;18.480;2023-01-28T04:07:13;20.00;99.90
37380;DHT22;23252;-33.992;18.480;2023-01-28T04:09:40;20.10;99.90
37380;DHT22;23252;-33.992;18.480;2023-01-28T04:12:07;20.10;99.90
37380;DHT22;23252;-33.992;18.480;2023-01-28T04:14:34;20.10;99.90
37380;DHT22;23252;-33.992;18.480;2023-01-28T04:17:01;20.10;99.90
37380;DHT22;23252;-33.992;18.480;2023-01-28T04:19:28;20.10;99.90
37380;DHT22;23252;-33.992;18.480;2023-01-28T04:21:56;20.10;99.90
37380;DHT22;23252;-33.992;18.480;2023-01-28T04:24:23;20.10;99.90
37380;DHT22;23252;-33.992;18.480;2023-01-28T04:27:08;20.20;99.90
37380;DHT22;23252;-33.992;18.480;2023-01-28T04:29:34;20.20;99.90
37380;DHT22;23252;-33.992;18.480;2023-01-28T04:32:01;20.10;99.90
37380;DHT22;23252;-33.992;18.480;2023-01-28T04:34:28;20.10;99.90
37380;DHT22;23252;-33.992;18.480;2023-01-28T04:37:02;20.10;99.90
37380;DHT22;23252;-33.992;18.480;2023-01-28T04:39:31;20.10;99.90
37380;DHT22;23252;-33.992;18.480;2023-01-28T04:42:04;20.10;99.90
37380;DHT22;23252;-33.992;18.480;2023-01-28T04:44:34;20.10;99.90
37380;DHT22;23252;-33.992;18.480;2023-01-28T04:47:00;20.20;99.90
37380;DHT22;23252;-33.992;18.480;2023-01-28T04:49:33;20.20;99.90
37380;DHT22;23252;-33.992;18.480;2023-01-28T04:52:05;20.20;99.90
37380;DHT22;23252;-33.992;18.480;2023-01-28T04:54:52;20.20;99.90
37380;DHT22;23252;-33.992;18.480;2023-01-28T04:57:18;20.30;99.90
37380;DHT22;23252;-33.992;18.480;2023-01-28T04:59:45;20.30;99.90
37380;DHT22;23252;-33.992;18.480;2023-01-28T05:02:11;20.30;99.90
37380;DHT22;23252;-33.992;18.480;2023-01-28T05:07:41;20.00;99.90
37380;DHT22;23252;-33.992;18.480;2023-01-28T05:10:09;19.90;99.90
37380;DHT22;23252;-33.992;18.480;2023-01-28T05:12:43;19.90;99.90
37380;DHT22;23252;-33.992;18.480;2023-01-28T05:15:14;19.80;99.90
37380;DHT22;23252;-33.992;18.480;2023-01-28T05:17:41;19.60;99.90
37380;DHT22;23252;-33.992;18.480;2023-01-28T05:20:09;19.50;99.90
37380;DHT22;23252;-33.992;18.480;2023-01-28T05:22:36;19.40;99.90
37380;DHT22;23252;-33.992;18.480;2023-01-28T05:25:11;19.40;99.90
37380;DHT22;23252;-33.992;18.480;2023-01-28T05:27:48;19.30;99.90
37380;DHT22;23252;-33.992;18.480;2023-01-28T05:30:18;19.40;99.90
37380;DHT22;23252;-33.992;18.480;2023-01-28T05:32:45;19.40;99.90
37380;DHT22;23252;-33.992;18.480;2023-01-28T05:35:12;19.50;99.90
37380;DHT22;23252;-33.992;18.480;2023-01-28T05:37:41;19.50;99.90
37380;DHT22;23252;-33.992;18.480;2023-01-28T05:40:08;19.40;99.90
37380;DHT22;23252;-33.992;18.480;2023-01-28T05:42:37;19.50;99.90
37380;DHT22;23252;-33.992;18.480;2023-01-28T05:45:10;19.50;99.90
37380;DHT22;23252;-33.992;18.480;2023-01-28T05:47:40;19.40;99.90
37380;DHT22;23252;-33.992;18.480;2023-01-28T05:50:08;19.40;99.90
37380;DHT22;23252;-33.992;18.480;2023-01-28T05:52:34;19.40;99.90
37380;DHT22;23252;-33.992;18.480;2023-01-28T05:55:04;19.50;99.90
37380;DHT22;23252;-33.992;18.480;2023-01-28T05:57:31;19.60;99.90
37380;DHT22;23252;-33.992;18.480;2023-01-28T05:59:58;19.60;99.90
37380;DHT22;23252;-33.992;18.480;2023-01-28T06:02:24;19.60;99.90
37380;DHT22;23252;-33.992;18.480;2023-01-28T08:15:42;20.40;99.90
37380;DHT22;23252;-33.992;18.480;2023-01-28T08:18:11;19.90;99.90
37380;DHT22;23252;-33.992;18.480;2023-01-28T08:20:38;19.80;99.90
37380;DHT22;23252;-33.992;18.480;2023-01-28T08:23:14;19.80;99.90
37380;DHT22;23252;-33.992;18.480;2023-01-28T08:25:41;19.90;99.90
37380;DHT22;23252;-33.992;18.480;2023-01-28T08:28:08;19.80;99.90
37380;DHT22;23252;-33.992;18.480;2023-01-28T08:30:36;19.90;99.90
37380;DHT22;23252;-33.992;18.480;2023-01-28T08:33:05;20.00;99.90
37380;DHT22;23252;-33.992;18.480;2023-01-28T08:35:32;20.00;99.90
37380;DHT22;23252;-33.992;18.480;2023-01-28T08:37:59;20.10;99.90
37380;DHT22;23252;-33.992;18.480;2023-01-28T08:40:26;20.10;99.90
37380;DHT22;23252;-33.992;18.480;2023-01-28T08:42:53;20.20;99.90
37380;DHT22;23252;-33.992;18.480;2023-01-28T08:45:21;20.40;99.90
37380;DHT22;23252;-33.992;18.480;2023-01-28T08:47:50;20.50;99.90
37380;DHT22;23252;-33.992;18.480;2023-01-28T08:50:18;20.70;99.90
37380;DHT22;23252;-33.992;18.480;2023-01-28T08:52:53;20.80;99.90
37380;DHT22;23252;-33.992;18.480;2023-01-28T08:55:20;20.90;99.90
37380;DHT22;23252;-33.992;18.480;2023-01-28T08:57:46;21.00;99.90
37380;DHT22;23252;-33.992;18.480;2023-01-28T09:00:13;20.80;99.90
37380;DHT22;23252;-33.992;18.480;2023-01-28T09:02:40;20.60;99.90
37380;DHT22;23252;-33.992;18.480;2023-01-28T09:05:07;20.20;99.90
37380;DHT22;23252;-33.992;18.480;2023-01-28T09:07:33;20.00;99.90
37380;DHT22;23252;-33.992;18.480;2023-01-28T09:10:00;20.00;99.90
37380;DHT22;23252;-33.992;18.480;2023-01-28T09:12:27;19.90;99.90
37380;DHT22;23252;-33.992;18.480;2023-01-28T09:14:53;19.70;99.90
37380;DHT22;23252;-33.992;18.480;2023-01-28T09:17:20;19.40;99.90
37380;DHT22;23252;-33.992;18.480;2023-01-28T09:19:49;19.30;99.90
37380;DHT22;23252;-33.992;18.480;2023-01-28T09:22:16;19.10;99.90
37380;DHT22;23252;-33.992;18.480;2023-01-28T09:24:43;19.10;99.90
37380;DHT22;23252;-33.992;18.480;2023-01-28T09:27:09;19.10;99.90
37380;DHT22;23252;-33.992;18.480;2023-01-28T09:29:36;19.20;99.90
37380;DHT22;23252;-33.992;18.480;2023-01-28T09:32:04;19.40;99.90
37380;DHT22;23252;-33.992;18.480;2023-01-28T09:34:32;19.40;99.90
37380;DHT22;23252;-33.992;18.480;2023-01-28T09:37:10;19.50;99.90
37380;DHT22;23252;-33.992;18.480;2023-01-28T09:45:37;20.00;99.90
37380;DHT22;23252;-33.992;18.480;2023-01-28T09:48:14;20.00;99.90
37380;DHT22;23252;-33.992;18.480;2023-01-28T09:50:51;20.10;99.90
37380;DHT22;23252;-33.992;18.480;2023-01-28T09:53:29;20.00;99.90
37380;DHT22;23252;-33.992;18.480;2023-01-28T09:56:02;20.00;99.90
37380;DHT22;23252;-33.992;18.480;2023-01-28T09:58:28;19.90;99.90
37380;DHT22;23252;-33.992;18.480;2023-01-28T10:09:42;19.90;99.90
37380;DHT22;23252;-33.992;18.480;2023-01-28T10:18:32;19.90;99.90
37380;DHT22;23252;-33.992;18.480;2023-01-28T10:21:23;19.90;99.90
37380;DHT22;23252;-33.992;18.480;2023-01-28T10:24:08;20.00;99.90
37380;DHT22;23252;-33.992;18.480;2023-01-28T10:26:39;20.10;99.90
37380;DHT22;23252;-33.992;18.480;2023-01-28T10:29:13;20.20;99.90
37380;DHT22;23252;-33.992;18.480;2023-01-28T10:31:49;20.40;99.90
37380;DHT22;23252;-33.992;18.480;2023-01-28T10:34:17;20.70;99.90
37380;DHT22;23252;-33.992;18.480;2023-01-28T10:36:44;20.70;99.90
37380;DHT22;23252;-33.992;18.480;2023-01-28T10:39:14;20.70;99.90
37380;DHT22;23252;-33.992;18.480;2023-01-28T10:41:41;20.80;99.90
37380;DHT22;23252;-33.992;18.480;2023-01-28T10:44:20;20.60;99.90
37380;DHT22;23252;-33.992;18.480;2023-01-28T10:46:50;20.50;99.90
37380;DHT22;23252;-33.992;18.480;2023-01-28T10:49:26;20.60;99.90
37380;DHT22;23252;-33.992;18.480;2023-01-28T10:51:53;20.60;99.90
37380;DHT22;23252;-33.992;18.480;2023-01-28T10:54:22;20.60;99.90
37380;DHT22;23252;-33.992;18.480;2023-01-28T10:56:52;20.80;99.90
37380;DHT22;23252;-33.992;18.480;2023-01-28T10:59:27;20.90;99.90
37380;DHT22;23252;-33.992;18.480;2023-01-28T11:02:00;21.00;99.90
37380;DHT22;23252;-33.992;18.480;2023-01-28T11:04:30;21.00;99.90
37380;DHT22;23252;-33.992;18.480;2023-01-28T11:07:05;21.00;99.90
37380;DHT22;23252;-33.992;18.480;2023-01-28T11:09:34;21.20;99.90
37380;DHT22;23252;-33.992;18.480;2023-01-28T11:12:26;21.50;99.90
37380;DHT22;23252;-33.992;18.480;2023-01-28T11:14:58;21.70;99.90
37380;DHT22;23252;-33.992;18.480;2023-01-28T11:17:30;21.80;99.90
37380;DHT22;23252;-33.992;18.480;2023-01-28T11:20:08;21.80;99.90
37380;DHT22;23252;-33.992;18.480;2023-01-28T11:22:40;21.70;99.90
37380;DHT22;23252;-33.992;18.480;2023-01-28T11:27:50;21.90;99.90
37380;DHT22;23252;-33.992;18.480;2023-01-28T11:32:57;22.10;99.90
37380;DHT22;23252;-33.992;18.480;2023-01-28T11:35:29;22.30;99.90
37380;DHT22;23252;-33.992;18.480;2023-01-28T11:37:58;22.40;99.90
37380;DHT22;23252;-33.992;18.480;2023-01-28T11:40:26;22.50;99.90
37380;DHT22;23252;-33.992;18.480;2023-01-28T11:42:54;22.70;99.90
37380;DHT22;23252;-33.992;18.480;2023-01-28T11:45:48;22.70;99.90
37380;DHT22;23252;-33.992;18.480;2023-01-28T11:54:18;22.60;99.90
37380;DHT22;23252;-33.992;18.480;2023-01-28T11:57:18;22.70;99.90
37380;DHT22;23252;-33.992;18.480;2023-01-28T12:00:16;23.00;99.90
37380;DHT22;23252;-33.992;18.480;2023-01-28T12:03:09;23.00;99.90
37380;DHT22;23252;-33.992;18.480;2023-01-28T12:05:54;23.30;99.90
37380;DHT22;23252;-33.992;18.480;2023-01-28T12:08:31;23.60;99.90
37380;DHT22;23252;-33.992;18.480;2023-01-28T12:11:15;23.70;99.90
37380;DHT22;23252;-33.992;18.480;2023-01-28T12:17:30;23.40;99.90
37380;DHT22;23252;-33.992;18.480;2023-01-28T12:19:57;23.60;99.90
37380;DHT22;23252;-33.992;18.480;2023-01-28T12:26:32;23.90;99.90
37380;DHT22;23252;-33.992;18.480;2023-01-28T12:31:50;23.70;99.90
37380;DHT22;23252;-33.992;18.480;2023-01-28T12:36:52;22.70;99.90
37380;DHT22;23252;-33.992;18.480;2023-01-28T12:39:40;22.60;99.90
37380;DHT22;23252;-33.992;18.480;2023-01-28T12:42:22;22.60;99.90
37380;DHT22;23252;-33.992;18.480;2023-01-28T12:45:15;22.30;99.90
37380;DHT22;23252;-33.992;18.480;2023-01-28T12:47:48;22.20;99.90
37380;DHT22;23252;-33.992;18.480;2023-01-28T12:50:35;22.20;99.90
37380;DHT22;23252;-33.992;18.480;2023-01-28T12:58:57;21.90;99.90
37380;DHT22;23252;-33.992;18.480;2023-01-28T13:04:17;21.50;99.90
37380;DHT22;23252;-33.992;18.480;2023-01-28T13:07:01;21.40;99.90
37380;DHT22;23252;-33.992;18.480;2023-01-28T13:09:33;21.30;99.90
37380;DHT22;23252;-33.992;18.480;2023-01-28T13:12:01;21.50;99.90
37380;DHT22;23252;-33.992;18.480;2023-01-28T13:14:33;21.70;99.90
37380;DHT22;23252;-33.992;18.480;2023-01-28T13:17:28;21.60;99.90
37380;DHT22;23252;-33.992;18.480;2023-01-28T13:19:56;21.60;99.90
37380;DHT22;23252;-33.992;18.480;2023-01-28T13:22:32;21.70;99.90
37380;DHT22;23252;-33.992;18.480;2023-01-28T13:25:23;21.70;99.90
37380;DHT22;23252;-33.992;18.480;2023-01-28T13:28:01;21.50;99.90
37380;DHT22;23252;-33.992;18.480;2023-01-28T13:30:30;21.30;99.90
37380;DHT22;23252;-33.992;18.480;2023-01-28T13:32:59;21.30;99.90
37380;DHT22;23252;-33.992;18.480;2023-01-28T13:35:35;21.30;99.90
37380;DHT22;23252;-33.992;18.480;2023-01-28T13:38:28;21.30;99.90
37380;DHT22;23252;-33.992;18.480;2023-01-28T13:40:59;21.10;99.90
37380;DHT22;23252;-33.992;18.480;2023-01-28T13:43:36;21.30;99.90
37380;DHT22;23252;-33.992;18.480;2023-01-28T13:46:25;21.40;99.90
37380;DHT22;23252;-33.992;18.480;2023-01-28T13:48:56;21.30;99.90
